Time;durP1;ratioP1;P1;durP2;ratioP2;P2;SDS_P1;SDS_P2;PMS_P1;PMS_P2;Temp;Humidity;BMP_temperature;BMP_pressure;BME280_temperature;BME280_humidity;BME280_pressure;Samples;Min_cycle;Max_cycle;Signal;HPM_P1;HPM_P2
2022/01/17 00:00:10;;;;;;;17.17;10.63;;;4.00;99.70;;;;;;4917639;29;20169;-81
2022/01/17 05:15:10;;;;;;;12.80;6.75;;;4.00;99.90;;;;;;5048318;23;20052;-80
2022/01/17 05:17:57;;;;;;;11.85;6.45;;;4.00;99.90;;;;;;4902323;29;20143;-79
2022/01/17 05:20:24;;;;;;;12.52;6.80;;;4.00;99.90;;;;;;4906598;29;20048;-79
2022/01/17 05:22:52;;;;;;;11.18;6.65;;;4.00;99.90;;;;;;4907766;29;20127;-79
2022/01/17 05:25:19;;;;;;;12.93;7.22;;;4.00;99.90;;;;;;4907025;29;20079;-80
2022/01/17 05:27:47;;;;;;;13.05;7.15;;;4.00;99.90;;;;;;4907012;29;20131;-80
2022/01/17 05:30:18;;;;;;;14.27;7.00;;;4.00;99.90;;;;;;4907532;29;20139;-79
2022/01/17 05:32:46;;;;;;;12.68;6.60;;;3.90;99.90;;;;;;4907875;29;20135;-79
2022/01/17 05:35:14;;;;;;;12.23;7.38;;;3.90;99.90;;;;;;4906846;29;20136;-80
2022/01/17 05:37:42;;;;;;;12.77;6.70;;;3.90;99.90;;;;;;4907294;29;20123;-79
2022/01/17 05:40:12;;;;;;;12.07;6.88;;;3.90;99.90;;;;;;4907591;29;20131;-79
2022/01/17 05:42:40;;;;;;;13.77;7.22;;;3.90;99.90;;;;;;4906996;29;20080;-80
2022/01/17 05:45:10;;;;;;;12.73;6.90;;;3.90;99.90;;;;;;4904421;29;20131;-79
2022/01/17 05:47:39;;;;;;;12.27;7.18;;;3.90;99.90;;;;;;4905349;29;20056;-80
2022/01/17 05:50:08;;;;;;;13.48;7.22;;;3.90;99.90;;;;;;4908372;29;20144;-79
2022/01/17 05:52:35;;;;;;;12.52;6.93;;;3.90;99.90;;;;;;4908435;29;20128;-80
2022/01/17 05:55:04;;;;;;;15.32;7.00;;;3.90;99.90;;;;;;4907734;29;20139;-80
2022/01/17 05:57:31;;;;;;;13.52;6.88;;;3.90;99.90;;;;;;4906482;29;20081;-79
2022/01/17 06:00:00;;;;;;;12.25;6.82;;;3.90;99.90;;;;;;4906439;29;20072;-79
2022/01/17 06:02:27;;;;;;;12.73;6.57;;;3.90;99.90;;;;;;4905537;29;20148;-80
2022/01/17 06:04:55;;;;;;;11.85;6.70;;;3.90;99.90;;;;;;4904753;29;20140;-80
2022/01/17 06:07:22;;;;;;;12.07;7.00;;;3.90;99.90;;;;;;4904281;29;20135;-79
2022/01/17 06:09:49;;;;;;;13.93;6.57;;;3.90;99.90;;;;;;4906392;29;20112;-80
2022/01/17 06:12:17;;;;;;;13.60;7.25;;;3.90;99.90;;;;;;4904583;29;20131;-80
2022/01/17 06:14:44;;;;;;;12.05;6.45;;;3.90;99.90;;;;;;4906256;29;20135;-79
2022/01/17 06:17:11;;;;;;;13.07;7.22;;;3.90;99.90;;;;;;4906829;29;20238;-80
2022/01/17 06:19:38;;;;;;;12.95;7.05;;;4.00;99.90;;;;;;4905771;29;20108;-79
2022/01/17 06:22:07;;;;;;;11.38;6.65;;;3.90;99.90;;;;;;4905858;29;20151;-79
2022/01/17 06:24:35;;;;;;;11.68;6.50;;;3.90;99.90;;;;;;4904254;29;20052;-80
2022/01/17 06:27:02;;;;;;;12.18;6.40;;;3.90;99.90;;;;;;4903453;29;20088;-78
2022/01/17 06:29:30;;;;;;;11.40;6.90;;;3.90;99.90;;;;;;4906696;29;20111;-80
2022/01/17 06:31:57;;;;;;;11.55;6.38;;;3.90;99.90;;;;;;4906673;29;20132;-81
2022/01/17 06:34:25;;;;;;;12.88;6.75;;;3.90;99.90;;;;;;4906192;29;20550;-80
2022/01/17 06:36:52;;;;;;;12.05;7.07;;;3.90;99.90;;;;;;4904699;29;20057;-81
2022/01/17 06:39:20;;;;;;;11.63;6.53;;;3.90;99.90;;;;;;4905719;29;20144;-79
2022/01/17 06:41:47;;;;;;;12.52;6.88;;;3.90;99.90;;;;;;4905858;29;20103;-79
2022/01/17 06:44:15;;;;;;;12.30;6.65;;;3.90;99.90;;;;;;4905641;29;20112;-79
2022/01/17 06:46:42;;;;;;;13.60;6.93;;;3.90;99.90;;;;;;4905768;29;20083;-80
2022/01/17 06:49:09;;;;;;;13.63;6.88;;;3.90;99.90;;;;;;4906146;29;20457;-79
2022/01/17 06:51:37;;;;;;;12.13;6.20;;;3.90;99.90;;;;;;4905773;29;20439;-79
2022/01/17 06:54:04;;;;;;;12.75;6.35;;;3.90;99.90;;;;;;4906031;29;20132;-80
2022/01/17 06:56:33;;;;;;;11.30;6.43;;;3.90;99.90;;;;;;4905574;29;20126;-81
2022/01/17 06:59:00;;;;;;;13.50;6.55;;;4.00;99.90;;;;;;4905532;29;20144;-79
2022/01/17 07:01:27;;;;;;;12.68;6.97;;;4.00;99.90;;;;;;4904706;29;20144;-80
2022/01/17 07:03:54;;;;;;;13.45;6.82;;;3.90;99.90;;;;;;4905464;29;20115;-79
2022/01/17 07:06:21;;;;;;;11.85;6.70;;;3.90;99.90;;;;;;4906699;29;20116;-79
2022/01/17 07:08:48;;;;;;;12.85;7.05;;;3.90;99.90;;;;;;4907004;29;20127;-80
2022/01/17 07:11:15;;;;;;;11.65;6.63;;;4.00;99.90;;;;;;4905288;29;20049;-79
2022/01/17 07:13:44;;;;;;;13.00;6.95;;;4.00;99.90;;;;;;4903784;29;20124;-79
2022/01/17 07:16:11;;;;;;;12.60;6.47;;;4.00;99.90;;;;;;4904108;29;20053;-80
2022/01/17 07:18:38;;;;;;;12.90;6.95;;;4.00;99.90;;;;;;4903828;29;20087;-80
2022/01/17 07:21:05;;;;;;;12.50;7.05;;;4.00;99.90;;;;;;4903915;29;20136;-80
2022/01/17 07:23:32;;;;;;;11.27;6.57;;;4.00;99.90;;;;;;4905217;29;20458;-79
2022/01/17 07:25:59;;;;;;;11.30;6.20;;;4.10;99.90;;;;;;4904935;29;20120;-80
2022/01/17 07:28:26;;;;;;;11.93;6.68;;;4.10;99.90;;;;;;4901491;29;20140;-80
2022/01/17 07:30:54;;;;;;;12.52;7.38;;;4.10;99.90;;;;;;4902673;29;20581;-79
2022/01/17 07:33:26;;;;;;;12.45;7.05;;;4.10;99.90;;;;;;4903499;29;20081;-79
2022/01/17 07:35:53;;;;;;;12.10;6.68;;;4.10;99.90;;;;;;4903015;29;20112;-80
2022/01/17 07:38:20;;;;;;;12.38;6.75;;;4.10;99.90;;;;;;4902529;29;20112;-79
2022/01/17 07:40:47;;;;;;;12.05;6.70;;;4.10;99.90;;;;;;4903560;29;20124;-78
2022/01/17 07:43:14;;;;;;;12.00;6.85;;;4.10;99.90;;;;;;4901448;29;20139;-78
2022/01/17 07:45:54;;;;;;;10.88;6.10;;;4.10;99.90;;;;;;4900627;29;20237;-80
2022/01/17 07:48:57;;;;;;;12.35;5.80;;;4.10;99.90;;;;;;4902756;29;20049;-79
2022/01/17 07:51:25;;;;;;;10.32;5.72;;;4.10;99.90;;;;;;4901776;29;20059;-80
2022/01/17 07:53:53;;;;;;;11.25;5.88;;;4.10;99.90;;;;;;4902091;29;20147;-78
2022/01/17 07:56:20;;;;;;;9.95;5.40;;;4.10;99.90;;;;;;4902562;29;20139;-81
2022/01/17 07:58:47;;;;;;;11.25;6.05;;;4.10;99.90;;;;;;4900493;29;20112;-79
2022/01/17 08:01:14;;;;;;;10.20;5.70;;;4.10;99.90;;;;;;4900457;29;20076;-79
2022/01/17 08:03:43;;;;;;;10.68;6.07;;;4.20;99.90;;;;;;4899026;29;20048;-79
2022/01/17 08:06:10;;;;;;;10.48;5.88;;;4.20;99.90;;;;;;4899309;29;20135;-78
2022/01/17 08:08:37;;;;;;;11.75;6.07;;;4.20;99.90;;;;;;4898061;29;20338;-80
2022/01/17 08:11:04;;;;;;;10.85;5.65;;;4.30;99.90;;;;;;4898861;29;20076;-80
2022/01/17 08:13:31;;;;;;;10.43;5.78;;;4.30;99.90;;;;;;4901344;29;20074;-79
2022/01/17 08:15:58;;;;;;;12.45;6.50;;;4.30;99.90;;;;;;4903060;29;20513;-78
2022/01/17 08:18:25;;;;;;;11.57;6.05;;;4.30;99.90;;;;;;4902998;29;20139;-79
2022/01/17 08:20:53;;;;;;;12.20;6.43;;;4.30;99.90;;;;;;4903125;29;20139;-79
2022/01/17 08:23:20;;;;;;;11.02;5.82;;;4.40;99.90;;;;;;4902494;29;20132;-78
2022/01/17 08:25:47;;;;;;;10.93;5.80;;;4.30;99.90;;;;;;4903197;29;20067;-79
2022/01/17 08:28:14;;;;;;;10.52;5.75;;;4.30;99.90;;;;;;4903572;29;20148;-80
2022/01/17 08:30:41;;;;;;;12.45;6.20;;;4.40;99.90;;;;;;4903508;29;20135;-79
2022/01/17 08:33:09;;;;;;;10.30;5.97;;;4.40;99.90;;;;;;4903255;29;20141;-82
2022/01/17 08:35:36;;;;;;;11.48;6.25;;;4.40;99.90;;;;;;4902420;29;20139;-80
2022/01/17 08:38:04;;;;;;;9.93;5.38;;;4.40;99.90;;;;;;4903143;29;20143;-79
2022/01/17 08:40:33;;;;;;;10.57;6.13;;;4.40;99.90;;;;;;4902962;29;20125;-80
2022/01/17 08:43:00;;;;;;;12.25;6.20;;;4.40;99.90;;;;;;4901454;29;20044;-80
2022/01/17 08:45:29;;;;;;;10.60;5.82;;;4.40;99.90;;;;;;4902643;29;20063;-79
2022/01/17 08:47:56;;;;;;;12.35;6.32;;;4.40;99.90;;;;;;4902304;29;20091;-80
2022/01/17 08:50:24;;;;;;;11.60;6.47;;;4.40;99.90;;;;;;4902356;29;20151;-80
2022/01/17 08:52:51;;;;;;;11.23;6.40;;;4.40;99.90;;;;;;4901952;29;20098;-79
2022/01/17 08:55:22;;;;;;;10.68;6.10;;;4.40;99.90;;;;;;4901146;29;20053;-79
2022/01/17 08:57:50;;;;;;;10.52;6.10;;;4.40;99.90;;;;;;4902283;29;20049;-81
2022/01/17 09:00:20;;;;;;;11.80;6.00;;;4.40;99.90;;;;;;4902107;29;20048;-79
2022/01/17 09:02:47;;;;;;;11.05;7.05;;;4.40;99.90;;;;;;4901841;29;20053;-79
2022/01/17 09:05:14;;;;;;;10.30;6.18;;;4.50;99.90;;;;;;4901807;29;20049;-80
2022/01/17 09:07:42;;;;;;;10.23;5.57;;;4.40;99.90;;;;;;4902157;29;20049;-80
2022/01/17 09:10:10;;;;;;;11.25;6.13;;;4.50;99.90;;;;;;4901861;29;20059;-80
2022/01/17 09:12:38;;;;;;;11.30;6.03;;;4.50;99.90;;;;;;4901271;29;20087;-79
2022/01/17 09:15:06;;;;;;;10.20;6.13;;;4.50;99.90;;;;;;4896681;29;20421;-79
2022/01/17 09:17:33;;;;;;;10.75;5.88;;;4.50;99.90;;;;;;4899437;29;20063;-78
2022/01/17 09:20:00;;;;;;;11.80;6.30;;;4.50;99.90;;;;;;4901083;29;20061;-78
2022/01/17 09:22:29;;;;;;;10.10;5.68;;;4.60;99.90;;;;;;4900236;29;20049;-80
2022/01/17 09:24:56;;;;;;;11.88;6.00;;;4.60;99.90;;;;;;4899401;29;20084;-80
2022/01/17 09:27:23;;;;;;;11.02;5.97;;;4.60;99.90;;;;;;4899992;29;20053;-80
2022/01/17 09:29:52;;;;;;;12.02;6.50;;;4.70;99.90;;;;;;4905179;29;20136;-78
2022/01/17 09:32:20;;;;;;;12.10;6.15;;;4.70;99.90;;;;;;4904574;29;20079;-80
2022/01/17 09:34:47;;;;;;;11.10;5.80;;;4.80;99.90;;;;;;4900313;29;20084;-78
2022/01/17 09:37:16;;;;;;;9.70;5.57;;;4.80;99.90;;;;;;4899635;29;20044;-80
2022/01/17 09:39:43;;;;;;;11.23;5.93;;;4.80;99.90;;;;;;4899498;29;20135;-79
2022/01/17 09:42:11;;;;;;;10.77;5.70;;;4.80;99.90;;;;;;4899783;29;20132;-80
2022/01/17 09:44:39;;;;;;;9.32;4.97;;;4.90;99.90;;;;;;4899244;29;20048;-79
2022/01/17 09:47:09;;;;;;;10.75;5.63;;;4.90;99.90;;;;;;4898540;29;20056;-80
2022/01/17 09:49:42;;;;;;;9.90;5.38;;;5.00;99.90;;;;;;4899763;29;20048;-78
2022/01/17 09:52:33;;;;;;;11.07;5.38;;;5.00;99.90;;;;;;4899607;29;20051;-79
2022/01/17 09:55:09;;;;;;;10.77;5.18;;;5.10;99.90;;;;;;4899517;29;20062;-79
2022/01/17 09:57:42;;;;;;;9.63;5.25;;;5.10;99.90;;;;;;4899103;29;20049;-79
2022/01/17 10:00:12;;;;;;;8.73;5.30;;;5.20;99.90;;;;;;4898843;29;20052;-80
2022/01/17 10:02:41;;;;;;;9.05;5.15;;;5.20;99.90;;;;;;4898461;29;20052;-79
2022/01/17 10:05:09;;;;;;;8.60;5.03;;;5.30;99.90;;;;;;4898725;29;20056;-80
2022/01/17 10:07:54;;;;;;;9.07;5.18;;;5.30;99.90;;;;;;4898711;29;20127;-79
2022/01/17 10:10:44;;;;;;;;;;;5.40;99.90;;;;;;4899268;29;20399;-80
2022/01/17 10:13:15;;;;;;;10.52;5.10;;;5.40;99.90;;;;;;4898541;29;20365;-77
2022/01/17 10:16:06;;;;;;;8.93;5.20;;;5.40;99.90;;;;;;4898695;29;20546;-78
2022/01/17 10:18:40;;;;;;;9.27;4.80;;;5.40;99.90;;;;;;4898672;29;20055;-79
2022/01/17 10:21:13;;;;;;;9.57;5.07;;;5.40;99.90;;;;;;4898727;29;20139;-78
2022/01/17 10:26:59;;;;;;;8.20;4.80;;;5.40;99.90;;;;;;4897427;29;20068;-80
2022/01/17 10:35:18;;;;;;;8.18;4.28;;;5.50;99.90;;;;;;4898050;29;20486;-78
2022/01/17 10:38:01;;;;;;;8.73;4.90;;;5.50;99.90;;;;;;4897035;29;20045;-78
2022/01/17 10:40:31;;;;;;;8.18;4.43;;;5.50;99.90;;;;;;4897306;29;20380;-79
2022/01/17 10:43:00;;;;;;;8.60;4.72;;;5.50;99.90;;;;;;4879774;29;20137;-80
2022/01/17 10:45:33;;;;;;;8.23;4.55;;;5.60;99.90;;;;;;4886224;29;20058;-79
2022/01/17 10:48:02;;;;;;;8.95;4.82;;;5.60;99.90;;;;;;4898112;29;20135;-75
2022/01/17 10:50:33;;;;;;;10.18;4.30;;;5.70;99.90;;;;;;4897982;29;20463;-80
2022/01/17 10:53:03;;;;;;;8.25;4.38;;;5.70;99.90;;;;;;4897579;29;20401;-79
2022/01/17 10:55:32;;;;;;;6.53;4.05;;;5.80;99.90;;;;;;4898015;29;20052;-78
2022/01/17 10:58:03;;;;;;;8.77;4.32;;;5.80;99.90;;;;;;4898021;29;20046;-79
2022/01/17 11:00:33;;;;;;;8.60;4.00;;;5.90;99.90;;;;;;4897371;29;20048;-80
2022/01/17 11:03:04;;;;;;;7.10;3.50;;;5.90;99.90;;;;;;4898053;29;20451;-79
2022/01/17 11:05:33;;;;;;;6.38;3.42;;;6.00;99.90;;;;;;4896929;29;20136;-79
2022/01/17 11:08:02;;;;;;;5.00;2.75;;;6.00;99.90;;;;;;4897028;29;20055;-80
2022/01/17 11:10:32;;;;;;;6.13;3.00;;;6.00;99.90;;;;;;4897804;29;20052;-79
2022/01/17 11:13:03;;;;;;;4.80;2.60;;;6.10;99.90;;;;;;4897387;29;20127;-79
2022/01/17 11:15:33;;;;;;;4.75;2.53;;;6.00;99.90;;;;;;4896924;29;20352;-78
2022/01/17 11:18:05;;;;;;;4.35;2.13;;;6.00;99.90;;;;;;4897556;29;20487;-79
2022/01/17 11:20:35;;;;;;;5.43;2.40;;;6.00;99.90;;;;;;4897391;29;20588;-79
2022/01/17 11:23:03;;;;;;;4.53;2.30;;;6.00;99.90;;;;;;4897958;29;20052;-80
2022/01/17 11:25:32;;;;;;;4.90;2.13;;;6.00;99.90;;;;;;4897391;29;20049;-79
2022/01/17 11:28:01;;;;;;;4.05;2.20;;;6.00;99.90;;;;;;4897779;29;20051;-77
2022/01/17 11:30:29;;;;;;;5.13;2.70;;;6.00;99.90;;;;;;4897228;29;20055;-79
2022/01/17 11:32:58;;;;;;;4.85;2.47;;;6.00;99.90;;;;;;4896734;29;20581;-78
2022/01/17 11:35:26;;;;;;;5.28;2.70;;;6.00;99.90;;;;;;4897278;29;20052;-78
2022/01/17 11:37:58;;;;;;;4.97;2.40;;;6.00;99.90;;;;;;4897752;29;20053;-79
2022/01/17 11:40:30;;;;;;;5.00;2.58;;;6.00;99.90;;;;;;4897205;29;20108;-79
2022/01/17 11:42:59;;;;;;;4.38;2.53;;;6.00;99.90;;;;;;4897356;29;20124;-78
2022/01/17 11:45:38;;;;;;;6.78;2.50;;;6.00;99.90;;;;;;4896665;29;20483;-80
2022/01/17 11:48:25;;;;;;;5.22;2.50;;;6.00;99.90;;;;;;4898999;29;20041;-77
2022/01/17 11:50:56;;;;;;;4.75;2.38;;;6.00;99.90;;;;;;4901041;29;20139;-78
2022/01/17 11:53:47;;;;;;;6.18;2.72;;;6.00;99.90;;;;;;4900881;29;20590;-79
2022/01/17 11:56:43;;;;;;;5.47;2.60;;;6.00;99.90;;;;;;4900847;29;20136;-78
2022/01/17 11:59:40;;;;;;;5.03;2.50;;;6.10;99.90;;;;;;4899334;29;20565;-79
2022/01/17 12:02:27;;;;;;;5.13;2.70;;;6.00;99.90;;;;;;4900655;29;20053;-79
2022/01/17 12:05:35;;;;;;;5.18;2.50;;;6.00;99.90;;;;;;4886058;29;20052;-77
2022/01/17 12:08:07;;;;;;;4.63;2.40;;;6.00;99.90;;;;;;4900900;29;20052;-79
2022/01/17 12:10:46;;;;;;;4.25;2.30;;;6.10;99.90;;;;;;4900418;29;20056;-79
2022/01/17 12:13:43;;;;;;;4.88;2.55;;;6.10;99.90;;;;;;4900273;29;20522;-77
2022/01/17 12:16:17;;;;;;;5.15;2.72;;;6.10;99.90;;;;;;4900670;29;20052;-78
2022/01/17 12:18:49;;;;;;;4.80;2.30;;;6.10;99.90;;;;;;4900422;29;20080;-79
2022/01/17 12:21:30;;;;;;;5.07;2.20;;;6.10;99.90;;;;;;4900183;29;20075;-80
2022/01/17 12:24:39;;;;;;;5.43;2.80;;;6.00;99.90;;;;;;4900386;29;20101;-80
2022/01/17 12:27:22;;;;;;;4.75;2.50;;;6.00;99.90;;;;;;4900384;29;20143;-79
2022/01/17 12:29:56;;;;;;;5.82;2.50;;;6.00;99.90;;;;;;4900524;29;20064;-78
2022/01/17 12:32:51;;;;;;;4.72;2.40;;;6.00;99.90;;;;;;4900367;29;20082;-78
2022/01/17 12:35:27;;;;;;;4.20;2.10;;;5.90;99.90;;;;;;4901243;29;20049;-78
2022/01/17 12:38:04;;;;;;;4.57;2.47;;;6.00;99.90;;;;;;4899412;29;20149;-79
2022/01/17 12:40:35;;;;;;;5.47;2.53;;;5.90;99.90;;;;;;4900171;29;20057;-79
2022/01/17 12:43:07;;;;;;;5.65;2.42;;;5.80;99.90;;;;;;4899749;29;20147;-78
2022/01/17 12:45:37;;;;;;;4.65;2.28;;;5.80;99.90;;;;;;4900061;29;20491;-80
2022/01/17 12:48:08;;;;;;;5.22;2.40;;;5.80;99.90;;;;;;4899964;29;20080;-80
2022/01/17 12:50:38;;;;;;;4.72;2.40;;;5.70;99.90;;;;;;4899429;29;20080;-80
2022/01/17 12:53:07;;;;;;;4.50;2.20;;;5.70;99.90;;;;;;4900059;29;20571;-80
2022/01/17 12:55:41;;;;;;;5.03;2.60;;;5.70;99.90;;;;;;4899794;29;20099;-80
2022/01/17 12:58:16;;;;;;;4.93;2.55;;;5.70;99.90;;;;;;4900062;29;20135;-78
2022/01/17 13:00:48;;;;;;;;;;;5.70;99.90;;;;;;4899582;29;20135;-80
2022/01/17 13:03:17;;;;;;;5.38;2.30;;;5.70;99.90;;;;;;4899628;29;20113;-78
2022/01/17 13:05:45;;;;;;;4.35;2.10;;;5.70;99.90;;;;;;4899749;29;20045;-79
2022/01/17 13:08:13;;;;;;;4.80;2.60;;;5.60;99.90;;;;;;4899537;29;20060;-78
2022/01/17 13:10:41;;;;;;;6.25;2.95;;;5.60;99.90;;;;;;4899580;29;20469;-78
2022/01/17 13:13:15;;;;;;;4.88;2.60;;;5.60;99.90;;;;;;4899581;29;20190;-79
2022/01/17 13:16:02;;;;;;;4.65;2.40;;;5.60;99.90;;;;;;4899657;29;20056;-79
2022/01/17 13:18:32;;;;;;;4.22;2.13;;;5.60;99.90;;;;;;4881188;29;20132;-78
2022/01/17 13:21:02;;;;;;;5.05;2.50;;;5.60;99.90;;;;;;4899483;29;20049;-79
2022/01/17 13:23:41;;;;;;;4.95;2.50;;;5.70;99.90;;;;;;4899439;29;20048;-78
2022/01/17 13:26:11;;;;;;;5.68;2.60;;;5.70;99.90;;;;;;4899400;29;20062;-79
2022/01/17 13:28:38;;;;;;;4.95;2.42;;;5.70;99.90;;;;;;4899480;29;20072;-79
2022/01/17 13:31:21;;;;;;;4.72;2.40;;;5.70;99.90;;;;;;4898807;29;20123;-78
2022/01/17 13:33:49;;;;;;;5.35;2.75;;;5.70;99.90;;;;;;4899281;29;20466;-78
2022/01/17 13:36:25;;;;;;;4.97;2.30;;;5.70;99.90;;;;;;4899038;29;20075;-79
2022/01/17 13:39:09;;;;;;;5.05;2.63;;;5.70;99.90;;;;;;4898982;29;20187;-78
2022/01/17 13:41:40;;;;;;;5.00;2.53;;;5.80;99.90;;;;;;4896761;29;20079;-78
2022/01/17 13:44:09;;;;;;;5.20;2.60;;;5.80;99.90;;;;;;4898616;29;20301;-79
2022/01/17 13:46:43;;;;;;;13.23;6.05;;;5.80;99.90;;;;;;4898714;29;20135;-79
2022/01/17 13:49:11;;;;;;;7.97;3.27;;;5.80;99.90;;;;;;4899197;29;20049;-78
2022/01/17 13:51:39;;;;;;;5.63;2.70;;;5.80;99.90;;;;;;4898695;29;20309;-78
2022/01/17 13:54:06;;;;;;;4.43;2.20;;;5.80;99.90;;;;;;4898929;29;20051;-79
2022/01/17 13:56:35;;;;;;;5.20;2.47;;;5.80;99.90;;;;;;4898325;29;20489;-80
2022/01/17 13:59:03;;;;;;;5.32;2.60;;;5.80;99.90;;;;;;4898567;29;20087;-79
2022/01/17 14:01:37;;;;;;;4.05;2.25;;;5.80;99.90;;;;;;4898847;29;20132;-78
2022/01/17 14:04:18;;;;;;;4.03;2.35;;;5.80;99.90;;;;;;4898756;29;20057;-79
2022/01/17 14:06:45;;;;;;;3.97;2.13;;;5.80;99.90;;;;;;4898449;29;20052;-78
2022/01/17 14:09:12;;;;;;;5.07;2.45;;;5.80;99.90;;;;;;4897957;29;20480;-79
2022/01/17 14:11:44;;;;;;;5.00;2.47;;;5.80;99.90;;;;;;4897411;29;20140;-79
2022/01/17 14:14:14;;;;;;;5.10;2.25;;;5.70;99.90;;;;;;4898453;29;20076;-79
2022/01/17 14:16:44;;;;;;;4.18;2.40;;;5.70;99.90;;;;;;4899685;29;20057;-79
2022/01/17 14:19:16;;;;;;;4.55;2.42;;;5.70;99.90;;;;;;4898700;29;20108;-79
2022/01/17 14:21:46;;;;;;;4.57;2.30;;;5.70;99.90;;;;;;4897754;29;20055;-77
2022/01/17 14:24:19;;;;;;;4.88;2.13;;;5.80;99.90;;;;;;4897978;29;20083;-78
2022/01/17 14:26:51;;;;;;;5.25;2.70;;;5.80;99.90;;;;;;4898263;29;20053;-79
2022/01/17 14:29:21;;;;;;;3.80;2.03;;;5.80;99.90;;;;;;4898580;29;20135;-79
2022/01/17 14:31:50;;;;;;;4.40;2.25;;;5.80;99.90;;;;;;4898801;29;20044;-78
2022/01/17 14:34:21;;;;;;;4.60;1.90;;;5.90;99.90;;;;;;4898266;29;20048;-78
2022/01/17 14:37:02;;;;;;;4.75;1.90;;;5.80;99.90;;;;;;4897382;29;20143;-80
2022/01/17 14:39:37;;;;;;;3.97;2.08;;;5.80;99.90;;;;;;4885669;29;20121;-79
2022/01/17 14:42:14;;;;;;;3.60;1.90;;;5.80;99.90;;;;;;4897717;29;20084;-78
2022/01/17 14:44:44;;;;;;;3.95;1.90;;;5.80;99.90;;;;;;4897776;29;20132;-80
2022/01/17 14:47:14;;;;;;;3.65;1.80;;;5.80;99.90;;;;;;4897901;29;20143;-80
2022/01/17 14:49:45;;;;;;;3.45;1.75;;;5.80;99.90;;;;;;4897539;29;20442;-78
2022/01/17 14:52:15;;;;;;;3.70;1.65;;;5.80;99.90;;;;;;4897794;29;20054;-82
2022/01/17 14:54:53;;;;;;;3.72;1.60;;;5.80;99.90;;;;;;4898316;29;20055;-87
2022/01/17 15:00:12;;;;;;;3.78;1.98;;;5.80;99.90;;;;;;4897849;29;20139;-82
2022/01/17 15:02:49;;;;;;;3.30;1.80;;;5.80;99.90;;;;;;4897416;29;20055;-82
2022/01/17 15:05:18;;;;;;;4.05;1.80;;;5.80;99.90;;;;;;4898017;29;20104;-79
2022/01/17 15:07:49;;;;;;;4.60;2.30;;;5.80;99.90;;;;;;4878989;29;20109;-81
2022/01/17 15:10:16;;;;;;;3.83;1.90;;;5.80;99.90;;;;;;4887425;29;20502;-82
2022/01/17 15:12:43;;;;;;;4.53;2.22;;;5.80;99.90;;;;;;4897751;29;20056;-81
2022/01/17 15:15:11;;;;;;;4.75;2.30;;;5.80;99.90;;;;;;4896987;29;20139;-81
2022/01/17 15:17:43;;;;;;;5.40;2.47;;;5.80;99.90;;;;;;4897213;29;20143;-81
2022/01/17 15:20:12;;;;;;;4.68;2.60;;;5.80;99.90;;;;;;4897779;29;20096;-81
2022/01/17 15:22:41;;;;;;;4.30;2.33;;;5.80;99.90;;;;;;4898381;29;20139;-82
2022/01/17 15:25:10;;;;;;;4.55;2.50;;;5.80;99.90;;;;;;4900454;29;20131;-80
2022/01/17 15:27:37;;;;;;;5.78;2.80;;;5.70;99.90;;;;;;4900816;29;20095;-82
2022/01/17 15:30:08;;;;;;;5.13;2.60;;;5.70;99.90;;;;;;4901217;29;20112;-80
2022/01/17 15:32:36;;;;;;;5.22;3.08;;;5.70;99.90;;;;;;4901467;29;20068;-82
2022/01/17 15:35:05;;;;;;;5.45;2.78;;;5.70;99.90;;;;;;4901712;29;20147;-80
2022/01/17 15:37:33;;;;;;;5.40;3.22;;;5.70;99.90;;;;;;4901477;29;20052;-81
2022/01/17 15:40:01;;;;;;;7.53;3.00;;;5.60;99.90;;;;;;4900754;29;20080;-79
2022/01/17 15:42:28;;;;;;;5.15;2.80;;;5.60;99.90;;;;;;4900898;29;20467;-86
2022/01/17 15:44:55;;;;;;;5.07;2.90;;;5.60;99.90;;;;;;4901168;29;20131;-84
2022/01/17 15:47:23;;;;;;;5.75;3.13;;;5.60;99.90;;;;;;4900996;29;20148;-84
2022/01/17 15:49:50;;;;;;;5.28;2.72;;;5.60;99.90;;;;;;4901295;29;20143;-82
2022/01/17 15:52:17;;;;;;;5.30;3.17;;;5.60;99.90;;;;;;4901041;29;20048;-82
2022/01/17 15:54:45;;;;;;;6.00;3.33;;;5.60;99.90;;;;;;4900727;29;20087;-83
2022/01/17 15:57:14;;;;;;;6.65;3.10;;;5.50;99.90;;;;;;4898738;29;20427;-89
2022/01/17 15:59:41;;;;;;;5.90;3.13;;;5.60;99.90;;;;;;4900441;29;20056;-88
2022/01/17 16:02:10;;;;;;;5.13;3.10;;;5.60;99.90;;;;;;4900797;29;20131;-86
2022/01/17 16:04:37;;;;;;;6.25;3.75;;;5.50;99.90;;;;;;4900780;29;20068;-85
2022/01/17 16:07:05;;;;;;;6.63;3.35;;;5.60;99.90;;;;;;4900046;29;20131;-85
2022/01/17 16:09:33;;;;;;;5.68;3.20;;;5.60;99.90;;;;;;4898731;29;20209;-84
2022/01/17 16:12:00;;;;;;;5.30;3.05;;;5.60;99.90;;;;;;4900624;29;20494;-85
2022/01/17 16:14:29;;;;;;;6.68;3.80;;;5.50;99.90;;;;;;4900295;29;20491;-84
2022/01/17 16:16:56;;;;;;;5.78;3.25;;;5.50;99.90;;;;;;4900345;29;20076;-83
2022/01/17 16:19:23;;;;;;;5.30;3.17;;;5.50;99.90;;;;;;4899853;29;20136;-83
2022/01/17 16:21:51;;;;;;;6.10;3.47;;;5.50;99.90;;;;;;4900594;29;20045;-83
2022/01/17 16:24:18;;;;;;;5.97;3.22;;;5.50;99.90;;;;;;4900331;29;20053;-85
2022/01/17 16:26:45;;;;;;;5.60;3.15;;;5.50;99.90;;;;;;4900584;29;20084;-84
2022/01/17 16:29:12;;;;;;;6.50;3.60;;;5.50;99.90;;;;;;4900747;29;20099;-86
2022/01/17 16:31:42;;;;;;;5.80;3.30;;;5.50;99.90;;;;;;4901567;29;20399;-84
2022/01/17 16:34:09;;;;;;;5.93;2.97;;;5.50;99.90;;;;;;4897846;29;20056;-83
2022/01/17 16:36:36;;;;;;;7.57;3.40;;;5.50;99.90;;;;;;4901968;29;20056;-86
2022/01/17 16:39:04;;;;;;;5.75;3.45;;;5.50;99.90;;;;;;4901721;29;20052;-83
2022/01/17 16:41:32;;;;;;;7.00;3.65;;;5.50;99.90;;;;;;4901723;29;20080;-90
2022/01/17 16:43:59;;;;;;;5.65;3.63;;;5.50;99.90;;;;;;4903293;29;20135;-85
2022/01/17 16:46:27;;;;;;;8.95;3.70;;;5.50;99.90;;;;;;4903449;29;20048;-87
2022/01/17 16:48:55;;;;;;;6.40;3.78;;;5.50;99.90;;;;;;4907044;29;20075;-84
2022/01/17 16:51:23;;;;;;;6.70;3.58;;;5.50;99.90;;;;;;4905331;29;20132;-85
2022/01/17 16:53:50;;;;;;;6.00;3.70;;;5.50;99.90;;;;;;4907502;29;20080;-87
2022/01/17 16:56:18;;;;;;;6.07;3.47;;;5.50;99.90;;;;;;4896607;29;20052;-87
2022/01/17 16:58:45;;;;;;;5.85;3.20;;;5.50;99.90;;;;;;4901679;29;20120;-85
2022/01/17 17:01:12;;;;;;;5.85;3.38;;;5.50;99.90;;;;;;4905139;29;20087;-87
2022/01/17 17:03:41;;;;;;;5.15;3.28;;;5.50;99.90;;;;;;4908249;29;20459;-85
2022/01/17 17:06:10;;;;;;;5.70;3.25;;;5.50;99.90;;;;;;4907261;29;20080;-85
2022/01/17 17:08:38;;;;;;;6.38;3.30;;;5.50;99.90;;;;;;4908107;29;20057;-85
2022/01/17 17:11:05;;;;;;;6.45;3.30;;;5.50;99.90;;;;;;4906571;29;20425;-85
2022/01/17 17:13:33;;;;;;;5.70;3.30;;;5.50;99.90;;;;;;4912552;29;20111;-85
2022/01/17 17:16:00;;;;;;;5.70;3.20;;;5.50;99.90;;;;;;4902197;29;20139;-85
2022/01/17 17:18:30;;;;;;;5.22;3.05;;;5.50;99.90;;;;;;4910474;29;20134;-86
2022/01/17 17:21:00;;;;;;;5.65;3.25;;;5.50;99.90;;;;;;4912059;29;20064;-85
2022/01/17 17:23:29;;;;;;;5.97;3.63;;;5.40;99.90;;;;;;4900268;29;20056;-86
2022/01/17 17:25:56;;;;;;;6.63;3.65;;;5.40;99.90;;;;;;4903321;29;20558;-87
2022/01/17 17:28:25;;;;;;;6.35;3.60;;;5.40;99.90;;;;;;4916656;29;20054;-85
2022/01/17 17:30:53;;;;;;;7.95;4.15;;;5.40;99.90;;;;;;4910238;29;20048;-86
2022/01/17 17:33:21;;;;;;;6.68;3.70;;;5.40;99.90;;;;;;4901483;29;20140;-85
2022/01/17 17:35:48;;;;;;;6.47;4.05;;;5.30;99.90;;;;;;4907524;29;20124;-86
2022/01/17 17:38:16;;;;;;;7.38;4.20;;;5.40;99.90;;;;;;4907539;29;20056;-85
2022/01/17 17:40:45;;;;;;;7.28;4.32;;;5.30;99.90;;;;;;4904651;29;20577;-84
2022/01/17 17:43:12;;;;;;;6.40;3.80;;;5.30;99.90;;;;;;4912316;29;20128;-87
2022/01/17 17:45:39;;;;;;;6.97;3.92;;;5.30;99.90;;;;;;4893769;29;20056;-84
2022/01/17 17:48:07;;;;;;;7.22;4.55;;;5.30;99.90;;;;;;4898156;29;20241;-86
2022/01/17 17:50:34;;;;;;;7.18;4.20;;;5.30;99.90;;;;;;4898298;29;20060;-86
2022/01/17 17:53:01;;;;;;;7.35;4.40;;;5.30;99.90;;;;;;4899551;29;20044;-85
2022/01/17 17:55:29;;;;;;;8.05;4.35;;;5.30;99.90;;;;;;4878430;29;20132;-85
2022/01/17 17:57:57;;;;;;;7.45;4.53;;;5.30;99.90;;;;;;4902153;29;20056;-85
2022/01/17 18:00:25;;;;;;;8.75;4.90;;;5.30;99.90;;;;;;4913000;29;20049;-83
2022/01/17 18:02:52;;;;;;;8.80;4.55;;;5.30;99.90;;;;;;4912517;29;20551;-85
2022/01/17 18:05:20;;;;;;;8.50;5.13;;;5.30;99.90;;;;;;4904088;29;20083;-85
2022/01/17 18:07:47;;;;;;;13.93;7.57;;;5.30;99.90;;;;;;4906224;29;20092;-83
2022/01/17 18:10:15;;;;;;;13.70;7.07;;;5.20;99.90;;;;;;4904252;29;20087;-85
2022/01/17 18:12:42;;;;;;;11.45;6.07;;;5.20;99.90;;;;;;4905729;29;20135;-84
2022/01/17 18:15:11;;;;;;;8.95;5.20;;;5.20;99.90;;;;;;4905902;29;20086;-84
2022/01/17 18:17:39;;;;;;;8.40;5.40;;;5.20;99.90;;;;;;4902274;29;20095;-84
2022/01/17 18:20:08;;;;;;;7.43;4.60;;;5.20;99.90;;;;;;4900401;29;20135;-83
2022/01/17 18:22:39;;;;;;;8.05;4.93;;;5.20;99.90;;;;;;4900697;29;20136;-85
2022/01/17 18:25:12;;;;;;;9.05;5.20;;;5.20;99.90;;;;;;4903601;29;20093;-86
2022/01/17 18:27:40;;;;;;;9.38;5.30;;;5.20;99.90;;;;;;4896133;29;20071;-86
2022/01/17 18:30:11;;;;;;;9.10;6.00;;;5.20;99.90;;;;;;4895675;29;20060;-87
2022/01/17 18:32:38;;;;;;;11.27;5.72;;;5.20;99.90;;;;;;4895820;29;20127;-88